createdAt,value
2023-03-30T00:01:15.389Z,99.90
2023-03-30T00:03:44.431Z,99.90
2023-03-30T00:06:14.759Z,99.90
2023-03-30T00:08:41.925Z,1.00
2023-03-30T00:11:13.344Z,1.00
2023-03-30T00:13:40.932Z,1.00
2023-03-30T00:16:12.715Z,1.00
2023-03-30T00:18:40.903Z,65.10
2023-03-30T00:21:11.090Z,9.40
2023-03-30T00:23:39.407Z,1.00
2023-03-30T00:26:07.472Z,1.00
2023-03-30T00:28:34.753Z,32.80
2023-03-30T00:31:02.310Z,43.70
2023-03-30T00:33:43.979Z,87.70
2023-03-30T00:36:12.668Z,99.90
2023-03-30T00:38:40.678Z,99.90
2023-03-30T00:41:09.304Z,82.50
2023-03-30T00:43:55.586Z,72.60
2023-03-30T00:46:24.448Z,15.60
2023-03-30T00:48:51.860Z,1.00
2023-03-30T00:51:19.623Z,1.00
2023-03-30T00:53:50.976Z,1.00
2023-03-30T00:56:23.695Z,21.40
2023-03-30T00:58:50.869Z,99.90
2023-03-30T01:01:25.736Z,99.90
2023-03-30T01:03:53.870Z,99.90
2023-03-30T01:06:24.530Z,99.90
2023-03-30T01:08:53.502Z,99.90
2023-03-30T01:11:21.623Z,99.90
2023-03-30T01:14:02.508Z,99.90
2023-03-30T01:16:35.610Z,99.90
2023-03-30T01:19:20.622Z,99.90
2023-03-30T01:22:23.942Z,99.90
2023-03-30T01:25:18.629Z,65.90
2023-03-30T01:28:20.639Z,61.70
2023-03-30T01:31:07.921Z,45.00
2023-03-30T01:33:56.107Z,1.00
2023-03-30T01:36:39.805Z,1.00
2023-03-30T01:39:13.018Z,18.50
2023-03-30T01:41:55.096Z,1.00
2023-03-30T01:44:34.508Z,1.00
2023-03-30T01:47:09.958Z,1.00
2023-03-30T01:50:08.803Z,64.30
2023-03-30T01:52:55.345Z,1.00
2023-03-30T01:55:45.311Z,1.00
2023-03-30T01:58:25.926Z,1.00
2023-03-30T02:00:54.926Z,1.00
2023-03-30T02:03:31.639Z,1.00
2023-03-30T02:06:17.578Z,1.00
2023-03-30T02:08:49.623Z,1.00
2023-03-30T02:11:16.678Z,1.00
2023-03-30T02:13:45.451Z,1.00
2023-03-30T02:16:20.316Z,1.00
2023-03-30T02:18:47.306Z,1.00
2023-03-30T02:21:14.507Z,99.90
2023-03-30T02:23:46.437Z,99.90
2023-03-30T02:26:14.030Z,1.00
2023-03-30T02:28:41.034Z,1.00
2023-03-30T02:31:16.826Z,1.00
2023-03-30T02:33:59.115Z,1.00
2023-03-30T02:36:49.745Z,1.00
2023-03-30T02:40:12.839Z,1.00
2023-03-30T02:42:53.680Z,1.00
2023-03-30T02:46:04.064Z,1.00
2023-03-30T02:48:49.513Z,99.90
2023-03-30T02:51:48.744Z,1.00
2023-03-30T02:54:58.228Z,1.00
2023-03-30T02:58:23.770Z,1.00
2023-03-30T03:01:14.726Z,1.00
2023-03-30T03:03:58.167Z,1.00
2023-03-30T03:06:27.995Z,1.00
2023-03-30T03:08:56.477Z,1.00
2023-03-30T03:11:28.177Z,1.00
2023-03-30T03:13:55.744Z,1.00
2023-03-30T03:16:23.945Z,1.00
2023-03-30T03:19:17.029Z,1.00
2023-03-30T03:21:47.006Z,1.00
2023-03-30T03:24:17.409Z,1.00
2023-03-30T03:27:02.964Z,1.00
2023-03-30T03:29:37.526Z,41.70
2023-03-30T03:32:05.023Z,73.40
2023-03-30T03:34:39.605Z,99.90
2023-03-30T03:37:07.583Z,99.90
2023-03-30T03:39:37.248Z,99.90
2023-03-30T03:42:08.641Z,99.90
2023-03-30T03:44:42.782Z,99.90
2023-03-30T03:47:09.724Z,99.90
2023-03-30T03:49:36.680Z,99.90
2023-03-30T03:52:03.757Z,99.90
2023-03-30T03:54:31.021Z,99.90
2023-03-30T03:56:58.167Z,99.90
2023-03-30T03:59:26.751Z,99.90
2023-03-30T04:01:53.780Z,99.90
2023-03-30T04:04:22.665Z,99.90
2023-03-30T04:06:49.673Z,99.90
2023-03-30T04:09:17.159Z,99.90
2023-03-30T04:12:02.465Z,99.90
2023-03-30T04:14:58.568Z,99.90
2023-03-30T04:17:47.279Z,99.90
2023-03-30T04:20:29.829Z,99.90
2023-03-30T04:22:57.269Z,99.90
2023-03-30T04:25:51.874Z,99.90
2023-03-30T04:28:21.903Z,99.90
2023-03-30T04:30:51.598Z,99.90
2023-03-30T04:33:53.193Z,99.90
2023-03-30T04:36:43.701Z,99.90
2023-03-30T04:39:33.524Z,99.90
2023-03-30T04:42:14.260Z,99.90
2023-03-30T04:45:20.768Z,99.90
2023-03-30T04:47:56.524Z,99.90
2023-03-30T04:50:55.896Z,99.90
2023-03-30T04:53:37.494Z,99.90
2023-03-30T04:56:40.854Z,99.90
2023-03-30T04:59:23.126Z,99.90
2023-03-30T05:02:13.847Z,99.90
2023-03-30T05:04:46.910Z,99.90
2023-03-30T05:07:21.722Z,99.90
2023-03-30T05:09:48.709Z,99.90
2023-03-30T05:12:34.378Z,99.90
2023-03-30T05:15:28.072Z,99.90
2023-03-30T05:18:20.979Z,99.90
2023-03-30T05:21:07.135Z,99.90
2023-03-30T05:23:54.360Z,99.90
2023-03-30T05:26:46.284Z,99.90
2023-03-30T05:29:33.542Z,99.90
2023-03-30T05:32:20.754Z,99.90
2023-03-30T05:35:06.381Z,99.90
2023-03-30T05:37:54.210Z,99.90
2023-03-30T05:40:24.012Z,99.90
2023-03-30T05:43:09.452Z,99.90
2023-03-30T05:46:06.127Z,99.90
2023-03-30T05:48:53.342Z,99.90
2023-03-30T05:51:40.089Z,99.90
2023-03-30T05:54:14.184Z,99.90
2023-03-30T05:56:59.219Z,99.90
2023-03-30T05:59:33.156Z,99.90
2023-03-30T06:02:19.708Z,99.90
2023-03-30T06:04:47.566Z,99.90
2023-03-30T06:07:15.460Z,99.90
2023-03-30T06:09:42.470Z,99.90
2023-03-30T06:12:19.576Z,99.90
2023-03-30T06:14:46.635Z,99.90
2023-03-30T06:17:33.969Z,99.90
2023-03-30T06:20:01.166Z,99.90
2023-03-30T06:22:31.281Z,99.90
2023-03-30T06:25:10.556Z,99.90
2023-03-30T06:27:37.577Z,99.90
2023-03-30T06:30:05.956Z,99.90
2023-03-30T06:32:33.249Z,99.90
2023-03-30T06:35:32.928Z,99.90
2023-03-30T06:38:01.341Z,99.90
2023-03-30T06:40:28.432Z,99.90
2023-03-30T06:42:57.192Z,99.90
2023-03-30T06:45:39.610Z,99.90
2023-03-30T06:48:07.126Z,99.90
2023-03-30T06:50:38.737Z,99.90
2023-03-30T06:53:16.947Z,99.90
2023-03-30T06:55:58.651Z,99.90
2023-03-30T06:58:31.273Z,99.90
2023-03-30T07:00:58.929Z,99.90
2023-03-30T07:03:42.358Z,99.90
2023-03-30T07:06:21.068Z,99.90
2023-03-30T07:08:49.587Z,99.90
2023-03-30T07:11:22.426Z,99.90
2023-03-30T07:13:50.939Z,99.90
2023-03-30T07:16:18.654Z,99.90
2023-03-30T07:18:47.076Z,99.90
2023-03-30T07:21:14.317Z,99.90
2023-03-30T07:23:43.357Z,99.90
2023-03-30T07:26:15.513Z,99.90
2023-03-30T07:28:59.883Z,99.90
2023-03-30T07:31:27.822Z,99.90
2023-03-30T07:33:55.244Z,99.90
2023-03-30T07:36:25.430Z,99.90
2023-03-30T07:38:53.375Z,99.90
2023-03-30T07:41:21.166Z,99.90
2023-03-30T07:43:52.593Z,99.90
2023-03-30T07:46:19.707Z,99.90
2023-03-30T07:48:49.936Z,99.90
2023-03-30T07:51:17.019Z,99.90
2023-03-30T07:53:54.158Z,99.90
2023-03-30T07:56:27.921Z,99.90
2023-03-30T07:58:57.166Z,99.90
2023-03-30T08:01:29.600Z,99.90
2023-03-30T08:04:13.773Z,99.90
2023-03-30T08:06:41.718Z,99.90
2023-03-30T08:09:09.341Z,99.90
2023-03-30T08:11:37.010Z,99.90
2023-03-30T08:14:05.291Z,99.90
2023-03-30T08:16:32.505Z,99.90
2023-03-30T08:18:59.550Z,99.90
2023-03-30T08:21:27.126Z,99.90
2023-03-30T08:23:57.892Z,99.90
2023-03-30T08:26:26.423Z,99.90
2023-03-30T08:28:53.352Z,99.90
2023-03-30T08:31:21.080Z,99.90
2023-03-30T08:33:49.131Z,99.90
2023-03-30T08:36:16.321Z,99.90
2023-03-30T08:38:46.252Z,99.90
2023-03-30T08:41:29.311Z,99.90
2023-03-30T08:44:00.866Z,99.90
2023-03-30T08:46:30.529Z,99.90
2023-03-30T08:49:01.353Z,99.90
2023-03-30T08:51:33.245Z,99.90
2023-03-30T08:54:06.503Z,99.90
2023-03-30T08:56:40.377Z,99.90
2023-03-30T08:59:31.052Z,99.90
2023-03-30T09:02:19.315Z,99.90
2023-03-30T09:05:04.799Z,99.90
2023-03-30T09:07:43.146Z,99.90
2023-03-30T09:10:15.919Z,99.90
2023-03-30T09:13:02.554Z,99.90
2023-03-30T09:15:40.641Z,99.90
2023-03-30T09:18:38.362Z,99.90
2023-03-30T09:21:07.012Z,99.90
2023-03-30T09:23:35.835Z,99.90
2023-03-30T09:26:23.863Z,99.90
2023-03-30T09:29:19.438Z,99.90
2023-03-30T09:31:52.151Z,99.90
2023-03-30T09:34:25.296Z,99.90
2023-03-30T09:37:22.523Z,99.90
2023-03-30T09:39:50.822Z,99.90
2023-03-30T09:42:48.243Z,99.90
2023-03-30T09:45:22.598Z,99.90
2023-03-30T09:47:49.772Z,99.90
2023-03-30T09:50:27.118Z,99.90
2023-03-30T09:53:01.926Z,99.90
2023-03-30T09:55:35.160Z,99.90
2023-03-30T09:58:31.693Z,99.90
2023-03-30T10:01:16.772Z,99.90
2023-03-30T10:03:47.143Z,99.90
2023-03-30T10:06:19.653Z,99.90
2023-03-30T10:08:57.582Z,99.90
2023-03-30T10:11:50.663Z,99.90
2023-03-30T10:14:35.697Z,99.90
2023-03-30T10:17:04.660Z,99.90
2023-03-30T10:19:37.956Z,99.90
2023-03-30T10:22:22.298Z,99.90
2023-03-30T10:24:57.392Z,99.90
2023-03-30T10:27:34.726Z,99.90
2023-03-30T10:30:11.190Z,99.90
2023-03-30T10:32:38.420Z,99.90
2023-03-30T10:35:10.192Z,99.90
2023-03-30T10:37:46.346Z,99.90
2023-03-30T10:40:24.106Z,99.90
2023-03-30T10:42:55.522Z,99.90
2023-03-30T10:45:51.028Z,99.90
2023-03-30T10:48:36.118Z,99.90
2023-03-30T10:51:23.773Z,99.90
2023-03-30T10:54:20.970Z,99.90
2023-03-30T10:57:16.328Z,99.90
2023-03-30T11:00:17.104Z,99.90
2023-03-30T11:02:54.556Z,99.90
2023-03-30T11:05:31.142Z,99.90
2023-03-30T11:08:05.078Z,99.90
2023-03-30T11:10:46.204Z,99.90
2023-03-30T11:13:35.969Z,99.90
2023-03-30T11:16:24.415Z,99.90
2023-03-30T11:19:05.798Z,99.90
2023-03-30T11:22:11.804Z,99.90
2023-03-30T11:24:41.902Z,99.90
2023-03-30T11:27:30.850Z,99.90
2023-03-30T11:30:11.077Z,99.90
2023-03-30T11:32:54.395Z,99.90
2023-03-30T11:35:46.910Z,1.00
2023-03-30T11:38:36.635Z,33.50
2023-03-30T11:41:28.771Z,1.00
2023-03-30T11:43:56.201Z,1.00
2023-03-30T11:46:30.292Z,1.00
2023-03-30T11:49:32.490Z,1.00
2023-03-30T11:52:22.158Z,1.00
2023-03-30T11:55:31.988Z,1.00
2023-03-30T11:58:29.908Z,1.00
2023-03-30T12:01:42.721Z,1.00
2023-03-30T12:04:13.451Z,1.00
2023-03-30T12:06:49.789Z,1.00
2023-03-30T12:09:23.322Z,1.00
2023-03-30T12:11:56.100Z,1.00
2023-03-30T12:14:59.397Z,1.00
2023-03-30T12:17:35.283Z,1.00
2023-03-30T12:20:23.857Z,14.10
2023-03-30T12:23:01.622Z,1.00
2023-03-30T12:25:35.890Z,1.00
2023-03-30T12:28:14.537Z,1.00
2023-03-30T12:31:00.196Z,1.00
2023-03-30T12:33:48.727Z,1.00
2023-03-30T12:36:38.042Z,1.00
2023-03-30T12:39:14.841Z,1.00
2023-03-30T12:41:49.886Z,1.00
2023-03-30T12:44:41.349Z,1.00
2023-03-30T12:47:49.336Z,99.90
2023-03-30T12:51:07.148Z,99.90
2023-03-30T12:54:04.442Z,99.90
2023-03-30T12:56:34.697Z,99.90
2023-03-30T12:59:27.307Z,1.00
2023-03-30T13:02:38.283Z,1.00
2023-03-30T13:05:25.294Z,1.00
2023-03-30T13:07:54.916Z,99.90
2023-03-30T13:10:31.056Z,1.00
2023-03-30T13:13:00.085Z,99.90
2023-03-30T13:15:29.951Z,99.90
2023-03-30T13:18:00.289Z,99.90
2023-03-30T13:20:35.497Z,1.00
2023-03-30T13:23:09.805Z,1.00
2023-03-30T13:26:03.208Z,26.70
2023-03-30T13:28:36.171Z,1.00
2023-03-30T13:31:31.880Z,99.90
2023-03-30T13:34:18.545Z,99.90
2023-03-30T13:37:17.888Z,1.00
2023-03-30T13:40:30.706Z,99.90
2023-03-30T13:43:35.525Z,99.90
2023-03-30T13:46:28.291Z,99.90
2023-03-30T13:49:29.930Z,1.00
2023-03-30T13:52:06.523Z,1.00
2023-03-30T13:54:35.061Z,99.90
2023-03-30T13:57:11.981Z,99.90
2023-03-30T13:59:46.120Z,99.90
2023-03-30T14:02:16.905Z,99.90
2023-03-30T14:04:49.137Z,99.90
2023-03-30T14:07:24.203Z,99.90
2023-03-30T14:10:12.046Z,99.90
2023-03-30T14:12:40.746Z,99.90
2023-03-30T14:15:28.542Z,99.90
2023-03-30T14:17:59.900Z,99.90
2023-03-30T14:20:48.478Z,99.90
2023-03-30T14:23:26.493Z,99.90
2023-03-30T14:26:03.331Z,1.00
2023-03-30T14:28:35.988Z,1.00
2023-03-30T14:31:12.256Z,1.00
2023-03-30T14:33:41.018Z,99.90
2023-03-30T14:36:11.675Z,1.00
2023-03-30T14:38:41.650Z,27.30
2023-03-30T14:41:29.291Z,45.90
2023-03-30T14:44:04.092Z,47.30
2023-03-30T14:46:42.783Z,6.90
2023-03-30T14:49:21.478Z,1.60
2023-03-30T14:51:51.967Z,33.10
2023-03-30T14:54:25.366Z,37.50
2023-03-30T14:57:03.888Z,35.80
2023-03-30T14:59:37.764Z,58.10
2023-03-30T15:02:21.027Z,90.20
2023-03-30T15:04:49.338Z,89.00
2023-03-30T15:07:17.832Z,99.90
2023-03-30T15:09:46.780Z,99.90
2023-03-30T15:12:38.488Z,99.90
2023-03-30T15:15:13.114Z,99.90
2023-03-30T15:17:48.405Z,99.90
2023-03-30T15:20:16.335Z,99.90
2023-03-30T15:22:51.708Z,99.90
2023-03-30T15:25:30.867Z,99.90
2023-03-30T15:28:09.393Z,99.90
2023-03-30T15:30:44.505Z,92.40
2023-03-30T15:33:36.814Z,96.10
2023-03-30T15:36:28.859Z,81.50
2023-03-30T15:38:58.853Z,66.20
2023-03-30T15:42:06.167Z,94.40
2023-03-30T15:44:41.158Z,42.70
2023-03-30T15:47:19.708Z,1.00
2023-03-30T15:49:51.708Z,1.00
2023-03-30T15:52:35.716Z,1.00
2023-03-30T15:55:18.896Z,1.00
2023-03-30T15:57:49.426Z,1.00
2023-03-30T16:00:25.067Z,1.00
2023-03-30T16:02:58.785Z,1.00
2023-03-30T16:05:30.048Z,1.00
2023-03-30T16:07:57.308Z,1.00
2023-03-30T16:10:33.099Z,99.90
2023-03-30T16:13:01.502Z,99.90
2023-03-30T16:15:33.421Z,99.90
2023-03-30T16:18:00.916Z,1.00
2023-03-30T16:20:32.224Z,99.90
2023-03-30T16:22:59.705Z,99.90
2023-03-30T16:27:58.760Z,1.00
2023-03-30T16:30:38.589Z,99.90
2023-03-30T16:33:05.738Z,99.90
2023-03-30T16:35:32.725Z,99.90
2023-03-30T16:37:59.810Z,99.90
2023-03-30T16:40:41.521Z,1.00
2023-03-30T16:43:10.185Z,99.90
2023-03-30T16:45:37.355Z,1.00
2023-03-30T16:48:05.029Z,1.00
2023-03-30T16:50:42.981Z,1.00
2023-03-30T16:53:11.111Z,1.00
2023-03-30T16:55:39.959Z,1.00
2023-03-30T16:58:09.401Z,1.00
2023-03-30T17:00:47.445Z,1.00
2023-03-30T17:03:14.996Z,99.90
2023-03-30T17:05:45.661Z,1.00
2023-03-30T17:08:26.920Z,1.00
2023-03-30T17:10:58.314Z,1.00
2023-03-30T17:13:26.735Z,1.00
2023-03-30T17:15:55.805Z,99.90
2023-03-30T17:18:25.095Z,1.00
2023-03-30T17:20:54.848Z,99.90
2023-03-30T17:23:25.974Z,1.00
2023-03-30T17:25:54.923Z,29.60
2023-03-30T17:28:34.775Z,1.00
2023-03-30T17:31:04.603Z,13.30
2023-03-30T17:33:34.142Z,51.70
2023-03-30T17:36:22.572Z,98.20
2023-03-30T17:38:50.802Z,99.90
2023-03-30T17:41:19.657Z,96.40
2023-03-30T17:43:48.375Z,1.00
2023-03-30T17:46:18.477Z,99.90
2023-03-30T17:48:45.758Z,99.90
2023-03-30T17:51:12.815Z,1.00
2023-03-30T17:53:39.774Z,15.20
2023-03-30T17:56:06.861Z,99.90
2023-03-30T17:58:36.117Z,99.90
2023-03-30T18:01:08.973Z,99.90
2023-03-30T18:03:39.161Z,99.90
2023-03-30T18:06:06.929Z,99.90
2023-03-30T18:08:34.220Z,1.00
2023-03-30T18:11:01.867Z,1.00
2023-03-30T18:13:30.556Z,1.00
2023-03-30T18:15:59.508Z,26.20
2023-03-30T18:18:30.907Z,99.90
2023-03-30T18:21:03.360Z,1.00
2023-03-30T18:23:34.895Z,99.90
2023-03-30T18:26:08.311Z,1.00
2023-03-30T18:28:40.369Z,1.00
2023-03-30T18:31:08.595Z,99.90
2023-03-30T18:33:35.649Z,1.00
2023-03-30T18:36:05.857Z,1.00
2023-03-30T18:38:33.636Z,99.90
2023-03-30T18:41:01.373Z,70.00
2023-03-30T18:43:28.896Z,60.90
2023-03-30T18:46:00.789Z,99.90
2023-03-30T18:48:28.658Z,99.90
2023-03-30T18:50:56.054Z,1.00
2023-03-30T18:53:26.212Z,99.90
2023-03-30T18:56:00.683Z,1.00
2023-03-30T18:58:33.984Z,1.00
2023-03-30T19:01:01.513Z,99.90
2023-03-30T19:03:30.114Z,99.90
2023-03-30T19:05:57.369Z,2.80
2023-03-30T19:08:26.188Z,59.20
2023-03-30T19:10:57.086Z,99.90
2023-03-30T19:13:26.199Z,1.00
2023-03-30T19:15:54.156Z,99.90
2023-03-30T19:18:21.511Z,99.90
2023-03-30T19:20:50.907Z,99.90
2023-03-30T19:23:19.067Z,99.90
2023-03-30T19:25:46.238Z,99.90
2023-03-30T19:28:14.971Z,99.90
2023-03-30T19:30:42.610Z,1.00
2023-03-30T19:33:15.243Z,1.00
2023-03-30T19:35:44.360Z,24.80
2023-03-30T19:38:11.382Z,99.90
2023-03-30T19:40:39.576Z,99.90
2023-03-30T19:43:07.500Z,99.90
2023-03-30T19:45:34.543Z,99.90
2023-03-30T19:48:01.576Z,99.90
2023-03-30T19:50:30.168Z,99.90
2023-03-30T19:52:57.854Z,99.90
2023-03-30T19:55:24.983Z,99.90
2023-03-30T19:57:52.033Z,99.90
2023-03-30T20:00:20.499Z,99.90
2023-03-30T20:02:51.511Z,99.90
2023-03-30T20:05:21.191Z,99.90
2023-03-30T20:07:48.936Z,99.90
2023-03-30T20:10:20.881Z,99.90
2023-03-30T20:12:49.522Z,99.90
2023-03-30T20:15:18.354Z,99.90
2023-03-30T20:17:45.536Z,99.90
2023-03-30T20:20:17.072Z,99.90
2023-03-30T20:22:44.897Z,99.90
2023-03-30T20:25:14.246Z,99.90
2023-03-30T20:27:41.570Z,99.90
2023-03-30T20:30:10.023Z,99.90
2023-03-30T20:32:37.198Z,99.90
2023-03-30T20:35:05.795Z,99.90
2023-03-30T20:37:32.780Z,99.90
2023-03-30T20:40:04.648Z,99.90
2023-03-30T20:42:32.779Z,99.90
2023-03-30T20:45:01.077Z,99.90
2023-03-30T20:47:30.941Z,99.90
2023-03-30T20:49:59.016Z,99.90
2023-03-30T20:52:27.124Z,55.10
2023-03-30T20:54:54.459Z,99.90
2023-03-30T20:57:25.672Z,99.90
2023-03-30T20:59:54.023Z,99.90
2023-03-30T21:02:21.700Z,99.90
2023-03-30T21:04:50.349Z,99.90
2023-03-30T21:07:17.914Z,99.90
2023-03-30T21:09:45.499Z,99.90
2023-03-30T21:12:12.478Z,99.90
2023-03-30T21:14:39.425Z,99.90
2023-03-30T21:17:06.691Z,99.90
2023-03-30T21:19:33.825Z,99.90
2023-03-30T21:22:01.153Z,99.90
2023-03-30T21:24:28.501Z,1.00
2023-03-30T21:26:56.009Z,1.00
2023-03-30T21:29:23.287Z,99.90
2023-03-30T21:31:50.880Z,99.90
2023-03-30T21:34:18.995Z,1.00
2023-03-30T21:36:46.607Z,1.00
2023-03-30T21:39:13.937Z,1.00
2023-03-30T21:41:41.158Z,1.00
2023-03-30T21:44:08.361Z,77.50
2023-03-30T21:46:35.402Z,99.90
2023-03-30T21:49:02.463Z,1.00
2023-03-30T21:51:31.474Z,1.00
2023-03-30T21:53:59.167Z,99.90
2023-03-30T21:56:32.940Z,1.00
2023-03-30T21:59:00.342Z,1.00
2023-03-30T22:01:27.731Z,1.00
2023-03-30T22:03:55.482Z,99.90
2023-03-30T22:06:23.523Z,99.90
2023-03-30T22:08:50.910Z,99.90
2023-03-30T22:11:24.688Z,1.00
2023-03-30T22:13:54.305Z,99.90
2023-03-30T22:16:35.070Z,99.90
2023-03-30T22:19:04.211Z,99.90
2023-03-30T22:21:34.758Z,99.90
2023-03-30T22:24:07.271Z,99.90
2023-03-30T22:26:35.570Z,99.90
2023-03-30T22:29:03.048Z,1.00
2023-03-30T22:31:30.396Z,99.90
2023-03-30T22:33:57.545Z,99.90
2023-03-30T22:36:29.873Z,1.00
2023-03-30T22:38:58.309Z,1.00
2023-03-30T22:41:27.433Z,99.90
2023-03-30T22:43:56.967Z,99.90
2023-03-30T22:46:26.216Z,99.90
2023-03-30T22:48:55.770Z,29.50
2023-03-30T22:51:27.359Z,99.90
2023-03-30T22:53:59.282Z,1.00
2023-03-30T22:56:28.537Z,99.90
2023-03-30T22:58:56.328Z,99.90
2023-03-30T23:01:23.702Z,1.00
2023-03-30T23:03:52.934Z,1.00
2023-03-30T23:06:20.231Z,99.90
2023-03-30T23:08:48.758Z,41.00
2023-03-30T23:11:16.414Z,1.00
2023-03-30T23:13:43.494Z,99.90
2023-03-30T23:16:10.650Z,99.90
2023-03-30T23:18:38.333Z,99.90
2023-03-30T23:21:10.986Z,1.00
2023-03-30T23:23:38.769Z,1.00
2023-03-30T23:26:10.002Z,1.00
2023-03-30T23:28:40.189Z,1.00
2023-03-30T23:31:17.538Z,1.00
2023-03-30T23:33:44.926Z,1.00
2023-03-30T23:36:16.858Z,1.00
2023-03-30T23:38:44.904Z,1.00
2023-03-30T23:41:17.951Z,1.00
2023-03-30T23:43:46.219Z,1.00
2023-03-30T23:46:14.034Z,1.00
2023-03-30T23:48:42.072Z,1.00
2023-03-30T23:51:09.406Z,1.00
2023-03-30T23:53:40.068Z,1.00
2023-03-30T23:56:12.892Z,1.00
2023-03-30T23:58:41.035Z,1.00
